sensor_id;sensor_type;location;lat;lon;timestamp;temperature;humidity
18446;DHT22;9352;50.888;4.466;2023-11-21T00:01:26;10.20;99.90
18446;DHT22;9352;50.888;4.466;2023-11-21T00:03:53;10.20;99.90
18446;DHT22;9352;50.888;4.466;2023-11-21T00:06:20;10.10;99.90
18446;DHT22;9352;50.888;4.466;2023-11-21T00:08:47;10.10;99.90
18446;DHT22;9352;50.888;4.466;2023-11-21T00:11:14;10.10;99.90
18446;DHT22;9352;50.888;4.466;2023-11-21T00:13:41;10.10;99.90
18446;DHT22;9352;50.888;4.466;2023-11-21T00:16:09;10.10;99.90
18446;DHT22;9352;50.888;4.466;2023-11-21T00:18:37;10.00;99.90
18446;DHT22;9352;50.888;4.466;2023-11-21T00:21:04;10.00;99.90
18446;DHT22;9352;50.888;4.466;2023-11-21T00:23:31;10.00;99.90
18446;DHT22;9352;50.888;4.466;2023-11-21T00:25:58;10.00;99.90
18446;DHT22;9352;50.888;4.466;2023-11-21T00:28:25;9.90;99.90
18446;DHT22;9352;50.888;4.466;2023-11-21T00:30:52;10.00;99.90
18446;DHT22;9352;50.888;4.466;2023-11-21T00:33:19;9.90;99.90
18446;DHT22;9352;50.888;4.466;2023-11-21T00:35:47;9.90;99.90
18446;DHT22;9352;50.888;4.466;2023-11-21T00:38:14;9.90;99.90
18446;DHT22;9352;50.888;4.466;2023-11-21T00:40:45;9.90;99.90
18446;DHT22;9352;50.888;4.466;2023-11-21T00:43:12;9.90;99.90
18446;DHT22;9352;50.888;4.466;2023-11-21T00:45:39;9.90;99.90
18446;DHT22;9352;50.888;4.466;2023-11-21T00:48:06;9.90;99.90
18446;DHT22;9352;50.888;4.466;2023-11-21T00:50:33;9.80;99.90
18446;DHT22;9352;50.888;4.466;2023-11-21T00:53:02;9.70;99.90
18446;DHT22;9352;50.888;4.466;2023-11-21T00:55:29;9.70;99.90
18446;DHT22;9352;50.888;4.466;2023-11-21T00:57:56;9.60;99.90
18446;DHT22;9352;50.888;4.466;2023-11-21T01:00:23;9.60;99.90
18446;DHT22;9352;50.888;4.466;2023-11-21T01:02:50;9.60;99.90
18446;DHT22;9352;50.888;4.466;2023-11-21T01:05:17;9.60;99.90
18446;DHT22;9352;50.888;4.466;2023-11-21T01:07:45;9.60;99.90
18446;DHT22;9352;50.888;4.466;2023-11-21T01:10:13;9.70;99.90
18446;DHT22;9352;50.888;4.466;2023-11-21T01:12:42;9.70;99.90
18446;DHT22;9352;50.888;4.466;2023-11-21T01:15:09;9.70;99.90
18446;DHT22;9352;50.888;4.466;2023-11-21T01:17:38;9.80;99.90
18446;DHT22;9352;50.888;4.466;2023-11-21T01:20:06;9.80;99.90
18446;DHT22;9352;50.888;4.466;2023-11-21T01:22:37;9.80;99.90
18446;DHT22;9352;50.888;4.466;2023-11-21T01:25:05;9.80;99.90
18446;DHT22;9352;50.888;4.466;2023-11-21T01:27:34;9.80;99.90
18446;DHT22;9352;50.888;4.466;2023-11-21T01:30:01;9.80;99.90
18446;DHT22;9352;50.888;4.466;2023-11-21T01:32:28;9.70;99.90
18446;DHT22;9352;50.888;4.466;2023-11-21T01:34:55;9.70;99.90
18446;DHT22;9352;50.888;4.466;2023-11-21T01:37:22;9.70;99.90
18446;DHT22;9352;50.888;4.466;2023-11-21T01:39:49;9.70;99.90
18446;DHT22;9352;50.888;4.466;2023-11-21T01:42:16;9.70;99.90
18446;DHT22;9352;50.888;4.466;2023-11-21T01:44:45;9.80;99.90
18446;DHT22;9352;50.888;4.466;2023-11-21T01:47:13;9.80;99.90
18446;DHT22;9352;50.888;4.466;2023-11-21T01:49:43;9.80;99.90
18446;DHT22;9352;50.888;4.466;2023-11-21T01:52:11;9.80;99.90
18446;DHT22;9352;50.888;4.466;2023-11-21T01:54:39;9.90;99.90
18446;DHT22;9352;50.888;4.466;2023-11-21T01:57:08;9.80;99.90
18446;DHT22;9352;50.888;4.466;2023-11-21T01:59:36;9.90;99.90
18446;DHT22;9352;50.888;4.466;2023-11-21T02:02:05;9.90;99.90
18446;DHT22;9352;50.888;4.466;2023-11-21T02:04:32;10.00;99.90
18446;DHT22;9352;50.888;4.466;2023-11-21T02:06:59;10.00;99.90
18446;DHT22;9352;50.888;4.466;2023-11-21T02:09:26;10.00;99.90
18446;DHT22;9352;50.888;4.466;2023-11-21T02:11:54;10.00;99.90
18446;DHT22;9352;50.888;4.466;2023-11-21T02:14:21;10.00;99.90
18446;DHT22;9352;50.888;4.466;2023-11-21T02:16:50;10.00;99.90
18446;DHT22;9352;50.888;4.466;2023-11-21T02:19:20;10.00;99.90
18446;DHT22;9352;50.888;4.466;2023-11-21T02:21:49;10.00;99.90
18446;DHT22;9352;50.888;4.466;2023-11-21T02:24:19;10.00;99.90
18446;DHT22;9352;50.888;4.466;2023-11-21T02:26:47;10.00;99.90
18446;DHT22;9352;50.888;4.466;2023-11-21T02:29:14;10.00;99.90
18446;DHT22;9352;50.888;4.466;2023-11-21T02:31:43;10.00;99.90
18446;DHT22;9352;50.888;4.466;2023-11-21T02:34:14;10.00;99.90
18446;DHT22;9352;50.888;4.466;2023-11-21T02:36:41;9.90;99.90
18446;DHT22;9352;50.888;4.466;2023-11-21T02:39:09;9.90;99.90
18446;DHT22;9352;50.888;4.466;2023-11-21T02:41:38;9.90;99.90
18446;DHT22;9352;50.888;4.466;2023-11-21T02:44:05;9.90;99.90
18446;DHT22;9352;50.888;4.466;2023-11-21T02:46:33;9.90;99.90
18446;DHT22;9352;50.888;4.466;2023-11-21T02:49:00;9.90;99.90
18446;DHT22;9352;50.888;4.466;2023-11-21T02:51:27;9.90;99.90
18446;DHT22;9352;50.888;4.466;2023-11-21T02:53:54;9.90;99.90
18446;DHT22;9352;50.888;4.466;2023-11-21T02:56:24;10.00;99.90
18446;DHT22;9352;50.888;4.466;2023-11-21T02:58:54;10.00;99.90
18446;DHT22;9352;50.888;4.466;2023-11-21T03:01:21;10.00;99.90
18446;DHT22;9352;50.888;4.466;2023-11-21T03:03:49;10.10;99.90
18446;DHT22;9352;50.888;4.466;2023-11-21T03:06:16;10.10;99.90
18446;DHT22;9352;50.888;4.466;2023-11-21T03:08:43;10.10;99.90
18446;DHT22;9352;50.888;4.466;2023-11-21T03:11:10;10.10;99.90
18446;DHT22;9352;50.888;4.466;2023-11-21T03:13:38;10.10;99.90
18446;DHT22;9352;50.888;4.466;2023-11-21T03:16:08;10.10;99.90
18446;DHT22;9352;50.888;4.466;2023-11-21T03:18:35;10.10;99.90
18446;DHT22;9352;50.888;4.466;2023-11-21T03:21:03;10.10;99.90
18446;DHT22;9352;50.888;4.466;2023-11-21T03:23:30;10.10;99.90
18446;DHT22;9352;50.888;4.466;2023-11-21T03:25:57;10.20;99.90
18446;DHT22;9352;50.888;4.466;2023-11-21T03:28:24;10.20;99.90
18446;DHT22;9352;50.888;4.466;2023-11-21T03:30:51;10.20;99.90
18446;DHT22;9352;50.888;4.466;2023-11-21T03:33:19;10.20;99.90
18446;DHT22;9352;50.888;4.466;2023-11-21T03:35:46;10.20;99.90
18446;DHT22;9352;50.888;4.466;2023-11-21T03:38:13;10.20;99.90
18446;DHT22;9352;50.888;4.466;2023-11-21T03:40:40;10.20;99.90
18446;DHT22;9352;50.888;4.466;2023-11-21T03:43:07;10.20;99.90
18446;DHT22;9352;50.888;4.466;2023-11-21T03:45:34;10.20;99.90
18446;DHT22;9352;50.888;4.466;2023-11-21T03:48:00;10.20;99.90
18446;DHT22;9352;50.888;4.466;2023-11-21T03:50:29;10.20;99.90
18446;DHT22;9352;50.888;4.466;2023-11-21T03:52:57;10.30;99.90
18446;DHT22;9352;50.888;4.466;2023-11-21T03:55:24;10.30;99.90
18446;DHT22;9352;50.888;4.466;2023-11-21T03:57:51;10.30;99.90
18446;DHT22;9352;50.888;4.466;2023-11-21T04:00:18;10.20;99.90
18446;DHT22;9352;50.888;4.466;2023-11-21T04:02:46;10.30;99.90
18446;DHT22;9352;50.888;4.466;2023-11-21T04:05:13;10.30;99.90
18446;DHT22;9352;50.888;4.466;2023-11-21T04:07:41;10.30;99.90
18446;DHT22;9352;50.888;4.466;2023-11-21T04:10:09;10.30;99.90
18446;DHT22;9352;50.888;4.466;2023-11-21T04:12:38;10.30;99.90
18446;DHT22;9352;50.888;4.466;2023-11-21T04:15:06;10.30;99.90
18446;DHT22;9352;50.888;4.466;2023-11-21T04:17:34;10.20;99.90
18446;DHT22;9352;50.888;4.466;2023-11-21T04:20:02;10.20;99.90
18446;DHT22;9352;50.888;4.466;2023-11-21T04:22:31;10.30;99.90
18446;DHT22;9352;50.888;4.466;2023-11-21T04:24:59;10.30;99.90
18446;DHT22;9352;50.888;4.466;2023-11-21T04:27:26;10.30;99.90
18446;DHT22;9352;50.888;4.466;2023-11-21T04:29:53;10.30;99.90
18446;DHT22;9352;50.888;4.466;2023-11-21T04:32:20;10.30;99.90
18446;DHT22;9352;50.888;4.466;2023-11-21T04:34:47;10.30;99.90
18446;DHT22;9352;50.888;4.466;2023-11-21T04:37:14;10.30;99.90
18446;DHT22;9352;50.888;4.466;2023-11-21T04:39:41;10.30;99.90
18446;DHT22;9352;50.888;4.466;2023-11-21T04:42:09;10.30;99.90
18446;DHT22;9352;50.888;4.466;2023-11-21T04:44:37;10.30;99.90
18446;DHT22;9352;50.888;4.466;2023-11-21T04:47:06;10.30;99.90
18446;DHT22;9352;50.888;4.466;2023-11-21T04:49:33;10.30;99.90
18446;DHT22;9352;50.888;4.466;2023-11-21T04:52:00;10.30;99.90
18446;DHT22;9352;50.888;4.466;2023-11-21T04:54:30;10.30;99.90
18446;DHT22;9352;50.888;4.466;2023-11-21T04:56:57;10.30;99.90
18446;DHT22;9352;50.888;4.466;2023-11-21T04:59:25;10.40;99.90
18446;DHT22;9352;50.888;4.466;2023-11-21T05:01:53;10.40;99.90
18446;DHT22;9352;50.888;4.466;2023-11-21T05:04:20;10.40;99.90
18446;DHT22;9352;50.888;4.466;2023-11-21T05:06:47;10.40;99.90
18446;DHT22;9352;50.888;4.466;2023-11-21T05:09:15;10.40;99.90
18446;DHT22;9352;50.888;4.466;2023-11-21T05:11:42;10.40;99.90
18446;DHT22;9352;50.888;4.466;2023-11-21T05:14:09;10.40;99.90
18446;DHT22;9352;50.888;4.466;2023-11-21T05:16:37;10.40;99.90
18446;DHT22;9352;50.888;4.466;2023-11-21T05:19:04;10.40;99.90
18446;DHT22;9352;50.888;4.466;2023-11-21T05:21:32;10.40;99.90
18446;DHT22;9352;50.888;4.466;2023-11-21T05:23:59;10.40;99.90
18446;DHT22;9352;50.888;4.466;2023-11-21T05:26:26;10.40;99.90
18446;DHT22;9352;50.888;4.466;2023-11-21T05:28:53;10.40;99.90
18446;DHT22;9352;50.888;4.466;2023-11-21T05:31:20;10.40;99.90
18446;DHT22;9352;50.888;4.466;2023-11-21T05:33:48;10.40;99.90
18446;DHT22;9352;50.888;4.466;2023-11-21T05:36:16;10.40;99.90
18446;DHT22;9352;50.888;4.466;2023-11-21T05:38:43;10.40;99.90
18446;DHT22;9352;50.888;4.466;2023-11-21T05:41:11;10.40;99.90
18446;DHT22;9352;50.888;4.466;2023-11-21T05:43:39;10.40;99.90
18446;DHT22;9352;50.888;4.466;2023-11-21T05:46:06;10.40;99.90
18446;DHT22;9352;50.888;4.466;2023-11-21T05:48:34;10.40;99.90
18446;DHT22;9352;50.888;4.466;2023-11-21T05:51:04;10.40;99.90
18446;DHT22;9352;50.888;4.466;2023-11-21T05:53:31;10.40;99.90
18446;DHT22;9352;50.888;4.466;2023-11-21T05:55:58;10.40;99.90
18446;DHT22;9352;50.888;4.466;2023-11-21T05:58:25;10.40;99.90
18446;DHT22;9352;50.888;4.466;2023-11-21T06:00:52;10.40;99.90
18446;DHT22;9352;50.888;4.466;2023-11-21T06:03:19;10.50;99.90
18446;DHT22;9352;50.888;4.466;2023-11-21T06:05:46;10.50;99.90
18446;DHT22;9352;50.888;4.466;2023-11-21T06:08:14;10.50;99.90
18446;DHT22;9352;50.888;4.466;2023-11-21T06:10:42;10.50;99.90
18446;DHT22;9352;50.888;4.466;2023-11-21T06:13:10;10.50;99.90
18446;DHT22;9352;50.888;4.466;2023-11-21T06:15:37;10.60;99.90
18446;DHT22;9352;50.888;4.466;2023-11-21T06:18:04;10.60;99.90
18446;DHT22;9352;50.888;4.466;2023-11-21T06:20:35;10.60;99.90
18446;DHT22;9352;50.888;4.466;2023-11-21T06:23:03;10.60;99.90
18446;DHT22;9352;50.888;4.466;2023-11-21T06:25:32;10.60;99.90
18446;DHT22;9352;50.888;4.466;2023-11-21T06:28:01;10.60;99.90
18446;DHT22;9352;50.888;4.466;2023-11-21T06:30:28;10.60;99.90
18446;DHT22;9352;50.888;4.466;2023-11-21T06:32:55;10.60;99.90
18446;DHT22;9352;50.888;4.466;2023-11-21T06:35:22;10.60;99.90
18446;DHT22;9352;50.888;4.466;2023-11-21T06:37:50;10.60;99.90
18446;DHT22;9352;50.888;4.466;2023-11-21T06:40:18;10.60;99.90
18446;DHT22;9352;50.888;4.466;2023-11-21T06:42:46;10.60;99.90
18446;DHT22;9352;50.888;4.466;2023-11-21T06:45:13;10.60;99.90
18446;DHT22;9352;50.888;4.466;2023-11-21T06:47:40;10.60;99.90
18446;DHT22;9352;50.888;4.466;2023-11-21T06:50:08;10.60;99.90
18446;DHT22;9352;50.888;4.466;2023-11-21T06:52:35;10.60;99.90
18446;DHT22;9352;50.888;4.466;2023-11-21T06:55:03;10.60;99.90
18446;DHT22;9352;50.888;4.466;2023-11-21T06:57:30;10.60;99.90
18446;DHT22;9352;50.888;4.466;2023-11-21T06:59:59;10.70;99.90
18446;DHT22;9352;50.888;4.466;2023-11-21T07:02:26;10.70;99.90
18446;DHT22;9352;50.888;4.466;2023-11-21T07:04:53;10.70;99.90
18446;DHT22;9352;50.888;4.466;2023-11-21T07:07:20;10.70;99.90
18446;DHT22;9352;50.888;4.466;2023-11-21T07:09:47;10.70;99.90
18446;DHT22;9352;50.888;4.466;2023-11-21T07:12:14;10.80;99.90
18446;DHT22;9352;50.888;4.466;2023-11-21T07:14:41;10.80;99.90
18446;DHT22;9352;50.888;4.466;2023-11-21T07:17:11;10.70;99.90
18446;DHT22;9352;50.888;4.466;2023-11-21T07:19:38;10.80;99.90
18446;DHT22;9352;50.888;4.466;2023-11-21T07:22:07;10.80;99.90
18446;DHT22;9352;50.888;4.466;2023-11-21T07:24:34;10.80;99.90
18446;DHT22;9352;50.888;4.466;2023-11-21T07:27:02;10.80;99.90
18446;DHT22;9352;50.888;4.466;2023-11-21T07:29:29;10.80;99.90
18446;DHT22;9352;50.888;4.466;2023-11-21T07:31:57;10.80;99.90
18446;DHT22;9352;50.888;4.466;2023-11-21T07:34:25;10.90;99.90
18446;DHT22;9352;50.888;4.466;2023-11-21T07:36:52;10.90;99.90
18446;DHT22;9352;50.888;4.466;2023-11-21T07:39:18;11.00;99.90
18446;DHT22;9352;50.888;4.466;2023-11-21T07:41:46;11.00;99.90
18446;DHT22;9352;50.888;4.466;2023-11-21T07:44:15;11.10;99.90
18446;DHT22;9352;50.888;4.466;2023-11-21T07:46:43;11.10;99.90
18446;DHT22;9352;50.888;4.466;2023-11-21T07:49:10;11.10;99.90
18446;DHT22;9352;50.888;4.466;2023-11-21T07:51:38;11.00;99.90
18446;DHT22;9352;50.888;4.466;2023-11-21T07:54:05;11.00;99.90
18446;DHT22;9352;50.888;4.466;2023-11-21T07:56:32;11.00;99.90
18446;DHT22;9352;50.888;4.466;2023-11-21T07:58:59;10.90;99.90
18446;DHT22;9352;50.888;4.466;2023-11-21T08:01:26;11.00;99.90
18446;DHT22;9352;50.888;4.466;2023-11-21T08:03:53;11.10;99.90
18446;DHT22;9352;50.888;4.466;2023-11-21T08:06:23;11.10;99.90
18446;DHT22;9352;50.888;4.466;2023-11-21T08:08:52;11.10;99.90
18446;DHT22;9352;50.888;4.466;2023-11-21T08:11:19;11.00;99.90
18446;DHT22;9352;50.888;4.466;2023-11-21T08:13:47;11.00;99.90
18446;DHT22;9352;50.888;4.466;2023-11-21T08:16:14;11.10;99.90
18446;DHT22;9352;50.888;4.466;2023-11-21T08:18:42;11.10;99.90
18446;DHT22;9352;50.888;4.466;2023-11-21T08:21:09;11.10;99.90
18446;DHT22;9352;50.888;4.466;2023-11-21T08:23:37;11.10;99.90
18446;DHT22;9352;50.888;4.466;2023-11-21T08:26:06;11.20;99.90
18446;DHT22;9352;50.888;4.466;2023-11-21T08:28:34;11.20;99.90
18446;DHT22;9352;50.888;4.466;2023-11-21T08:31:01;11.10;99.90
18446;DHT22;9352;50.888;4.466;2023-11-21T08:33:28;11.10;99.90
18446;DHT22;9352;50.888;4.466;2023-11-21T08:35:55;11.10;99.90
18446;DHT22;9352;50.888;4.466;2023-11-21T08:38:22;11.10;99.90
18446;DHT22;9352;50.888;4.466;2023-11-21T08:40:49;11.10;99.90
18446;DHT22;9352;50.888;4.466;2023-11-21T08:43:17;11.10;99.90
18446;DHT22;9352;50.888;4.466;2023-11-21T08:45:45;11.10;99.90
18446;DHT22;9352;50.888;4.466;2023-11-21T08:48:12;11.20;99.90
18446;DHT22;9352;50.888;4.466;2023-11-21T08:50:39;11.20;99.90
18446;DHT22;9352;50.888;4.466;2023-11-21T08:53:06;11.30;99.90
18446;DHT22;9352;50.888;4.466;2023-11-21T08:55:33;11.30;99.90
18446;DHT22;9352;50.888;4.466;2023-11-21T08:58:03;11.30;99.90
18446;DHT22;9352;50.888;4.466;2023-11-21T09:00:32;11.30;99.90
18446;DHT22;9352;50.888;4.466;2023-11-21T09:03:01;11.30;99.90
18446;DHT22;9352;50.888;4.466;2023-11-21T09:05:29;11.30;99.90
18446;DHT22;9352;50.888;4.466;2023-11-21T09:07:55;11.30;99.90
18446;DHT22;9352;50.888;4.466;2023-11-21T09:10:22;11.40;99.90
18446;DHT22;9352;50.888;4.466;2023-11-21T09:12:51;11.40;99.90
18446;DHT22;9352;50.888;4.466;2023-11-21T09:15:18;11.40;99.90
18446;DHT22;9352;50.888;4.466;2023-11-21T09:17:47;11.40;99.90
18446;DHT22;9352;50.888;4.466;2023-11-21T09:20:14;11.30;99.90
18446;DHT22;9352;50.888;4.466;2023-11-21T09:22:41;11.30;99.90
18446;DHT22;9352;50.888;4.466;2023-11-21T09:25:10;11.20;99.90
18446;DHT22;9352;50.888;4.466;2023-11-21T09:27:38;11.30;99.90
18446;DHT22;9352;50.888;4.466;2023-11-21T09:30:06;11.30;99.90
18446;DHT22;9352;50.888;4.466;2023-11-21T09:32:35;11.30;99.90
18446;DHT22;9352;50.888;4.466;2023-11-21T09:35:05;11.30;99.90
18446;DHT22;9352;50.888;4.466;2023-11-21T09:37:33;11.40;99.90
18446;DHT22;9352;50.888;4.466;2023-11-21T09:40:01;11.40;99.90
18446;DHT22;9352;50.888;4.466;2023-11-21T09:42:35;11.50;99.90
18446;DHT22;9352;50.888;4.466;2023-11-21T09:45:08;11.60;99.90
18446;DHT22;9352;50.888;4.466;2023-11-21T09:47:39;11.60;99.90
18446;DHT22;9352;50.888;4.466;2023-11-21T09:50:08;11.70;99.90
18446;DHT22;9352;50.888;4.466;2023-11-21T09:52:46;11.70;99.90
18446;DHT22;9352;50.888;4.466;2023-11-21T09:55:16;11.70;99.90
18446;DHT22;9352;50.888;4.466;2023-11-21T09:57:47;11.70;99.90
18446;DHT22;9352;50.888;4.466;2023-11-21T10:00:15;11.60;99.90
18446;DHT22;9352;50.888;4.466;2023-11-21T10:02:43;11.50;99.90
18446;DHT22;9352;50.888;4.466;2023-11-21T10:05:12;11.50;99.90
18446;DHT22;9352;50.888;4.466;2023-11-21T10:07:39;11.40;99.90
18446;DHT22;9352;50.888;4.466;2023-11-21T10:10:08;11.40;99.90
18446;DHT22;9352;50.888;4.466;2023-11-21T10:12:35;11.10;99.90
18446;DHT22;9352;50.888;4.466;2023-11-21T10:15:08;11.00;99.90
18446;DHT22;9352;50.888;4.466;2023-11-21T10:17:38;11.10;99.90
18446;DHT22;9352;50.888;4.466;2023-11-21T10:20:11;11.30;99.90
18446;DHT22;9352;50.888;4.466;2023-11-21T10:22:39;11.40;99.90
18446;DHT22;9352;50.888;4.466;2023-11-21T10:25:08;11.50;99.90
18446;DHT22;9352;50.888;4.466;2023-11-21T10:27:35;11.50;99.90
18446;DHT22;9352;50.888;4.466;2023-11-21T10:30:03;11.70;99.90
18446;DHT22;9352;50.888;4.466;2023-11-21T10:32:30;11.70;99.90
18446;DHT22;9352;50.888;4.466;2023-11-21T10:34:58;11.70;99.90
18446;DHT22;9352;50.888;4.466;2023-11-21T10:37:29;11.90;99.90
18446;DHT22;9352;50.888;4.466;2023-11-21T10:39:57;12.10;99.90
18446;DHT22;9352;50.888;4.466;2023-11-21T10:42:25;12.20;99.90
18446;DHT22;9352;50.888;4.466;2023-11-21T10:44:52;12.30;99.90
18446;DHT22;9352;50.888;4.466;2023-11-21T10:47:19;12.30;99.90
18446;DHT22;9352;50.888;4.466;2023-11-21T10:49:48;12.10;99.90
18446;DHT22;9352;50.888;4.466;2023-11-21T10:52:15;12.10;99.90
18446;DHT22;9352;50.888;4.466;2023-11-21T10:54:46;12.20;99.90
18446;DHT22;9352;50.888;4.466;2023-11-21T10:57:17;12.30;99.90
18446;DHT22;9352;50.888;4.466;2023-11-21T10:59:47;12.40;99.90
18446;DHT22;9352;50.888;4.466;2023-11-21T11:02:21;12.60;99.90
18446;DHT22;9352;50.888;4.466;2023-11-21T11:04:52;12.70;99.90
18446;DHT22;9352;50.888;4.466;2023-11-21T11:07:22;12.80;99.90
18446;DHT22;9352;50.888;4.466;2023-11-21T11:09:53;12.80;99.90
18446;DHT22;9352;50.888;4.466;2023-11-21T11:12:20;12.70;99.90
18446;DHT22;9352;50.888;4.466;2023-11-21T11:14:48;12.60;99.90
18446;DHT22;9352;50.888;4.466;2023-11-21T11:17:15;12.40;99.90
18446;DHT22;9352;50.888;4.466;2023-11-21T11:19:46;12.50;99.90
18446;DHT22;9352;50.888;4.466;2023-11-21T11:22:24;12.40;99.90
18446;DHT22;9352;50.888;4.466;2023-11-21T11:25:21;12.20;99.90
18446;DHT22;9352;50.888;4.466;2023-11-21T11:27:54;12.30;99.90
18446;DHT22;9352;50.888;4.466;2023-11-21T11:30:34;12.40;99.90
18446;DHT22;9352;50.888;4.466;2023-11-21T11:33:10;12.40;99.90
18446;DHT22;9352;50.888;4.466;2023-11-21T11:35:49;12.50;99.90
18446;DHT22;9352;50.888;4.466;2023-11-21T11:38:21;12.70;99.90
18446;DHT22;9352;50.888;4.466;2023-11-21T11:40:53;12.90;99.90
18446;DHT22;9352;50.888;4.466;2023-11-21T11:43:25;13.00;99.90
18446;DHT22;9352;50.888;4.466;2023-11-21T11:45:55;12.80;99.90
18446;DHT22;9352;50.888;4.466;2023-11-21T11:48:25;12.80;99.90
18446;DHT22;9352;50.888;4.466;2023-11-21T11:51:02;12.80;99.90
18446;DHT22;9352;50.888;4.466;2023-11-21T11:53:35;12.80;99.90
18446;DHT22;9352;50.888;4.466;2023-11-21T11:56:31;12.50;99.90
18446;DHT22;9352;50.888;4.466;2023-11-21T11:59:02;12.40;99.90
18446;DHT22;9352;50.888;4.466;2023-11-21T12:01:30;12.50;99.90
18446;DHT22;9352;50.888;4.466;2023-11-21T12:04:23;12.40;99.90
18446;DHT22;9352;50.888;4.466;2023-11-21T12:06:57;12.50;99.90
18446;DHT22;9352;50.888;4.466;2023-11-21T12:09:25;12.50;99.90
18446;DHT22;9352;50.888;4.466;2023-11-21T12:11:55;12.30;99.90
18446;DHT22;9352;50.888;4.466;2023-11-21T12:14:23;12.40;99.90
18446;DHT22;9352;50.888;4.466;2023-11-21T12:16:51;12.20;99.90
18446;DHT22;9352;50.888;4.466;2023-11-21T12:19:19;12.20;99.90
18446;DHT22;9352;50.888;4.466;2023-11-21T12:21:48;12.00;99.90
18446;DHT22;9352;50.888;4.466;2023-11-21T12:24:16;12.10;99.90
18446;DHT22;9352;50.888;4.466;2023-11-21T12:26:43;12.10;99.90
18446;DHT22;9352;50.888;4.466;2023-11-21T12:29:12;11.90;99.90
18446;DHT22;9352;50.888;4.466;2023-11-21T12:31:39;11.90;99.90
18446;DHT22;9352;50.888;4.466;2023-11-21T12:34:06;11.80;99.90
18446;DHT22;9352;50.888;4.466;2023-11-21T12:36:37;11.90;99.90
18446;DHT22;9352;50.888;4.466;2023-11-21T12:39:04;12.20;99.90
18446;DHT22;9352;50.888;4.466;2023-11-21T12:41:31;12.40;99.90
18446;DHT22;9352;50.888;4.466;2023-11-21T12:43:58;12.40;99.90
18446;DHT22;9352;50.888;4.466;2023-11-21T12:46:26;12.40;99.90
18446;DHT22;9352;50.888;4.466;2023-11-21T12:48:56;12.60;99.90
18446;DHT22;9352;50.888;4.466;2023-11-21T12:51:24;12.70;99.90
18446;DHT22;9352;50.888;4.466;2023-11-21T12:53:51;12.80;99.90
18446;DHT22;9352;50.888;4.466;2023-11-21T12:56:18;12.80;99.90
18446;DHT22;9352;50.888;4.466;2023-11-21T12:58:49;12.60;99.90
18446;DHT22;9352;50.888;4.466;2023-11-21T13:01:16;12.20;99.90
18446;DHT22;9352;50.888;4.466;2023-11-21T13:03:48;12.20;99.90
18446;DHT22;9352;50.888;4.466;2023-11-21T13:06:18;12.00;99.90
18446;DHT22;9352;50.888;4.466;2023-11-21T13:08:45;11.90;99.90
18446;DHT22;9352;50.888;4.466;2023-11-21T13:11:13;11.80;99.90
18446;DHT22;9352;50.888;4.466;2023-11-21T13:13:41;11.80;99.90
18446;DHT22;9352;50.888;4.466;2023-11-21T13:16:09;11.90;99.90
18446;DHT22;9352;50.888;4.466;2023-11-21T13:18:36;11.80;99.90
18446;DHT22;9352;50.888;4.466;2023-11-21T13:21:09;11.70;99.90
18446;DHT22;9352;50.888;4.466;2023-11-21T13:23:39;11.60;99.90
18446;DHT22;9352;50.888;4.466;2023-11-21T13:26:07;11.60;99.90
18446;DHT22;9352;50.888;4.466;2023-11-21T13:28:35;11.70;99.90
18446;DHT22;9352;50.888;4.466;2023-11-21T13:31:03;11.70;99.90
18446;DHT22;9352;50.888;4.466;2023-11-21T13:33:35;11.70;99.90
18446;DHT22;9352;50.888;4.466;2023-11-21T13:36:04;11.70;99.90
18446;DHT22;9352;50.888;4.466;2023-11-21T13:38:34;11.70;99.90
18446;DHT22;9352;50.888;4.466;2023-11-21T13:41:03;11.70;99.90
18446;DHT22;9352;50.888;4.466;2023-11-21T13:43:33;11.80;99.90
18446;DHT22;9352;50.888;4.466;2023-11-21T13:45:59;11.80;99.90
18446;DHT22;9352;50.888;4.466;2023-11-21T13:48:34;11.80;99.90
18446;DHT22;9352;50.888;4.466;2023-11-21T13:51:07;12.00;99.90
18446;DHT22;9352;50.888;4.466;2023-11-21T13:53:43;12.00;99.90
18446;DHT22;9352;50.888;4.466;2023-11-21T13:56:10;12.10;99.90
18446;DHT22;9352;50.888;4.466;2023-11-21T13:58:38;12.10;99.90
18446;DHT22;9352;50.888;4.466;2023-11-21T14:01:12;12.20;99.90
18446;DHT22;9352;50.888;4.466;2023-11-21T14:03:58;12.20;99.90
18446;DHT22;9352;50.888;4.466;2023-11-21T14:06:34;12.10;99.90
18446;DHT22;9352;50.888;4.466;2023-11-21T14:09:13;12.10;99.90
18446;DHT22;9352;50.888;4.466;2023-11-21T14:11:49;12.00;99.90
18446;DHT22;9352;50.888;4.466;2023-11-21T14:14:15;12.10;99.90
18446;DHT22;9352;50.888;4.466;2023-11-21T14:16:43;11.80;99.90
18446;DHT22;9352;50.888;4.466;2023-11-21T14:19:10;11.90;99.90
18446;DHT22;9352;50.888;4.466;2023-11-21T14:21:41;11.70;99.90
18446;DHT22;9352;50.888;4.466;2023-11-21T14:24:09;11.80;99.90
18446;DHT22;9352;50.888;4.466;2023-11-21T14:26:40;11.80;99.90
18446;DHT22;9352;50.888;4.466;2023-11-21T14:29:08;11.90;99.90
18446;DHT22;9352;50.888;4.466;2023-11-21T14:31:38;11.90;99.90
18446;DHT22;9352;50.888;4.466;2023-11-21T14:34:05;11.90;99.90
18446;DHT22;9352;50.888;4.466;2023-11-21T14:36:33;11.70;99.90
18446;DHT22;9352;50.888;4.466;2023-11-21T14:38:59;11.70;99.90
18446;DHT22;9352;50.888;4.466;2023-11-21T14:41:26;11.70;99.90
18446;DHT22;9352;50.888;4.466;2023-11-21T14:43:55;11.80;99.90
18446;DHT22;9352;50.888;4.466;2023-11-21T14:46:23;11.80;99.90
18446;DHT22;9352;50.888;4.466;2023-11-21T14:48:50;11.80;99.90
18446;DHT22;9352;50.888;4.466;2023-11-21T14:51:26;11.70;99.90
18446;DHT22;9352;50.888;4.466;2023-11-21T14:53:56;11.60;99.90
18446;DHT22;9352;50.888;4.466;2023-11-21T14:56:26;11.60;99.90
18446;DHT22;9352;50.888;4.466;2023-11-21T14:58:58;11.60;99.90
18446;DHT22;9352;50.888;4.466;2023-11-21T15:01:25;11.60;99.90
18446;DHT22;9352;50.888;4.466;2023-11-21T15:04:08;11.40;99.90
18446;DHT22;9352;50.888;4.466;2023-11-21T15:06:40;11.30;99.90
18446;DHT22;9352;50.888;4.466;2023-11-21T15:09:08;11.30;99.90
18446;DHT22;9352;50.888;4.466;2023-11-21T15:11:52;11.40;99.90
18446;DHT22;9352;50.888;4.466;2023-11-21T15:14:25;11.40;99.90
18446;DHT22;9352;50.888;4.466;2023-11-21T15:16:57;11.40;99.90
18446;DHT22;9352;50.888;4.466;2023-11-21T15:19:25;11.40;99.90
18446;DHT22;9352;50.888;4.466;2023-11-21T15:21:53;11.40;99.90
18446;DHT22;9352;50.888;4.466;2023-11-21T15:24:20;11.50;99.90
18446;DHT22;9352;50.888;4.466;2023-11-21T15:26:47;11.50;99.90
18446;DHT22;9352;50.888;4.466;2023-11-21T15:29:15;11.30;99.90
18446;DHT22;9352;50.888;4.466;2023-11-21T15:31:44;11.30;99.90
18446;DHT22;9352;50.888;4.466;2023-11-21T15:34:14;11.30;99.90
18446;DHT22;9352;50.888;4.466;2023-11-21T15:36:41;11.30;99.90
18446;DHT22;9352;50.888;4.466;2023-11-21T15:39:07;11.20;99.90
18446;DHT22;9352;50.888;4.466;2023-11-21T15:41:37;11.10;99.90
18446;DHT22;9352;50.888;4.466;2023-11-21T15:44:05;11.10;99.90
18446;DHT22;9352;50.888;4.466;2023-11-21T15:46:34;11.10;99.90
18446;DHT22;9352;50.888;4.466;2023-11-21T15:49:03;11.00;99.90
18446;DHT22;9352;50.888;4.466;2023-11-21T15:51:38;11.00;99.90
18446;DHT22;9352;50.888;4.466;2023-11-21T15:54:05;10.90;99.90
18446;DHT22;9352;50.888;4.466;2023-11-21T15:56:33;10.90;99.90